createdAt,value
2019-03-09T00:03:57.716Z,4.12
2019-03-09T00:09:03.286Z,3.93
2019-03-09T00:14:09.957Z,4.10
2019-03-09T00:19:15.168Z,3.80
2019-03-09T00:24:35.524Z,4.60
2019-03-09T00:29:59.597Z,4.60
2019-03-09T00:35:05.753Z,4.63
2019-03-09T00:40:12.054Z,4.60
2019-03-09T00:45:18.021Z,4.60
2019-03-09T00:50:23.692Z,4.40
2019-03-09T00:55:29.197Z,4.60
2019-03-09T01:00:36.469Z,4.60
2019-03-09T01:05:41.901Z,4.60
2019-03-09T01:10:47.130Z,4.97
2019-03-09T01:15:53.769Z,5.20
2019-03-09T01:20:58.827Z,5.13
2019-03-09T01:26:04.296Z,5.20
2019-03-09T01:31:09.427Z,5.17
2019-03-09T01:36:14.692Z,4.80
2019-03-09T01:41:21.096Z,5.03
2019-03-09T01:46:26.876Z,5.43
2019-03-09T01:51:31.935Z,5.07
2019-03-09T01:56:37.774Z,5.00
2019-03-09T02:01:43.544Z,5.00
2019-03-09T02:06:48.675Z,5.00
2019-03-09T02:11:54.455Z,4.97
2019-03-09T02:17:00.279Z,5.63
2019-03-09T02:22:05.725Z,4.67
2019-03-09T02:27:11.189Z,4.90
2019-03-09T02:32:16.069Z,4.47
2019-03-09T02:37:22.257Z,4.57
2019-03-09T02:42:27.369Z,4.00
2019-03-09T02:47:32.720Z,3.50
2019-03-09T02:52:38.571Z,3.07
2019-03-09T02:57:44.068Z,2.87
2019-03-09T03:02:58.224Z,3.00
2019-03-09T03:08:03.363Z,2.80
2019-03-09T03:13:09.019Z,2.60
2019-03-09T03:18:14.434Z,2.97
2019-03-09T03:23:19.534Z,2.60
2019-03-09T03:28:24.912Z,2.33
2019-03-09T03:33:30.250Z,2.40
2019-03-09T03:38:35.378Z,2.50
2019-03-09T03:43:40.554Z,2.20
2019-03-09T03:48:45.788Z,2.40
2019-03-09T03:53:51.197Z,2.00
2019-03-09T03:58:56.736Z,2.00
2019-03-09T04:04:01.843Z,2.50
2019-03-09T04:09:07.715Z,1.93
2019-03-09T04:14:13.122Z,2.27
2019-03-09T04:19:18.585Z,2.10
2019-03-09T04:24:23.731Z,2.20
2019-03-09T04:29:29.060Z,2.30
2019-03-09T04:34:34.568Z,2.50
2019-03-09T04:39:39.885Z,2.63
2019-03-09T04:44:45.144Z,2.40
2019-03-09T04:49:50.293Z,2.30
2019-03-09T04:54:55.551Z,2.80
2019-03-09T05:00:01.958Z,2.30
2019-03-09T05:05:08.424Z,2.50
2019-03-09T05:10:38.049Z,2.67
2019-03-09T05:15:43.192Z,2.10
2019-03-09T05:20:48.780Z,2.40
2019-03-09T05:25:54.379Z,2.47
2019-03-09T05:30:59.808Z,2.30
2019-03-09T05:36:05.256Z,2.70
2019-03-09T05:41:10.509Z,2.00
2019-03-09T05:46:15.984Z,1.90
2019-03-09T05:51:21.515Z,2.00
2019-03-09T05:56:27.090Z,1.80
2019-03-09T06:01:32.596Z,1.90
2019-03-09T06:06:38.622Z,1.77
2019-03-09T06:11:43.800Z,2.03
2019-03-09T06:16:48.957Z,2.10
2019-03-09T06:21:54.585Z,1.60
2019-03-09T06:27:00.081Z,1.80
2019-03-09T06:32:51.508Z,1.60
2019-03-09T06:38:08.231Z,1.53
2019-03-09T06:43:13.322Z,1.80
2019-03-09T06:48:18.502Z,1.30
2019-03-09T06:53:23.948Z,1.23
2019-03-09T06:58:29.453Z,1.20
2019-03-09T07:03:35.210Z,1.10
2019-03-09T07:08:41.944Z,1.20
2019-03-09T07:13:52.961Z,1.30
2019-03-09T07:18:54.045Z,1.30
2019-03-09T07:23:59.141Z,1.20
2019-03-09T07:29:04.764Z,1.20
2019-03-09T07:34:26.253Z,1.23
2019-03-09T07:39:31.670Z,1.43
2019-03-09T07:44:36.924Z,1.30
2019-03-09T07:49:42.432Z,1.20
2019-03-09T07:54:48.296Z,1.10
2019-03-09T07:59:53.521Z,0.90
2019-03-09T08:04:58.589Z,1.03
2019-03-09T08:10:03.732Z,0.80
2019-03-09T08:15:10.208Z,1.10
2019-03-09T08:20:15.597Z,0.87
2019-03-09T08:25:21.019Z,0.90
2019-03-09T08:30:26.321Z,0.70
2019-03-09T08:35:31.495Z,0.97
2019-03-09T08:40:37.749Z,0.90
2019-03-09T08:45:42.882Z,0.80
2019-03-09T08:50:48.897Z,0.83
2019-03-09T08:55:54.173Z,0.70
2019-03-09T09:00:59.303Z,0.80
2019-03-09T09:06:04.534Z,0.70
2019-03-09T09:11:09.782Z,0.70
2019-03-09T09:16:15.276Z,1.00
2019-03-09T09:21:21.566Z,0.80
2019-03-09T09:26:26.781Z,0.75
2019-03-09T09:31:33.264Z,0.75
2019-03-09T09:36:38.539Z,0.90
2019-03-09T09:41:44.384Z,0.80
2019-03-09T09:46:50.845Z,1.00
2019-03-09T09:51:58.913Z,1.00
2019-03-09T09:57:05.307Z,1.30
2019-03-09T10:02:10.584Z,1.30
2019-03-09T10:07:15.808Z,1.27
2019-03-09T10:12:21.407Z,1.62
2019-03-09T10:17:26.660Z,1.30
2019-03-09T10:22:33.420Z,1.40
2019-03-09T10:27:39.603Z,1.20
2019-03-09T10:32:46.060Z,1.27
2019-03-09T10:37:52.796Z,1.10
2019-03-09T10:42:58.071Z,1.40
2019-03-09T10:48:03.514Z,1.30
2019-03-09T10:53:08.771Z,1.30
2019-03-09T10:58:14.171Z,1.27
2019-03-09T11:03:19.412Z,1.30
2019-03-09T11:08:24.798Z,1.20
2019-03-09T11:13:31.016Z,1.40
2019-03-09T11:18:37.479Z,1.60
2019-03-09T11:23:43.357Z,1.42
2019-03-09T11:28:48.927Z,1.60
2019-03-09T11:33:54.492Z,1.70
2019-03-09T11:38:59.739Z,1.60
2019-03-09T11:44:04.979Z,1.70
2019-03-09T11:49:10.229Z,1.67
2019-03-09T11:54:15.804Z,1.57
2019-03-09T11:59:21.034Z,1.50
2019-03-09T12:04:26.278Z,1.40
2019-03-09T12:09:33.443Z,1.55
2019-03-09T12:14:39.094Z,1.60
2019-03-09T12:19:45.046Z,1.20
2019-03-09T12:24:55.765Z,1.30
2019-03-09T12:30:03.692Z,1.20
2019-03-09T12:35:08.605Z,0.95
2019-03-09T12:40:15.514Z,1.10
2019-03-09T12:45:21.390Z,0.98
2019-03-09T12:50:26.719Z,1.00
2019-03-09T12:55:32.333Z,1.17
2019-03-09T13:00:37.626Z,1.22
2019-03-09T13:05:43.621Z,0.80
2019-03-09T13:10:50.321Z,0.80
2019-03-09T13:15:55.965Z,0.90
2019-03-09T13:21:02.966Z,1.00
2019-03-09T13:26:08.616Z,1.10
2019-03-09T13:31:14.182Z,1.00
2019-03-09T13:36:19.416Z,1.02
2019-03-09T13:41:24.999Z,1.12
2019-03-09T13:46:30.224Z,1.20
2019-03-09T13:51:36.352Z,1.20
2019-03-09T13:56:41.959Z,0.95
2019-03-09T14:01:47.313Z,1.02
2019-03-09T14:06:52.538Z,1.07
2019-03-09T14:11:57.766Z,0.90
2019-03-09T14:17:03.386Z,1.05
2019-03-09T14:22:08.686Z,1.15
2019-03-09T14:27:15.283Z,1.20
2019-03-09T14:32:20.577Z,1.57
2019-03-09T14:37:25.806Z,1.22
2019-03-09T14:42:31.227Z,1.10
2019-03-09T14:47:36.509Z,1.30
2019-03-09T14:52:42.038Z,1.30
2019-03-09T14:57:47.323Z,1.35
2019-03-09T15:02:52.894Z,1.10
2019-03-09T15:07:58.147Z,1.20
2019-03-09T15:13:04.064Z,1.17
2019-03-09T15:18:09.598Z,1.20
2019-03-09T15:23:14.821Z,1.10
2019-03-09T15:28:20.049Z,0.88
2019-03-09T15:33:25.282Z,0.98
2019-03-09T15:38:30.535Z,1.17
2019-03-09T15:43:35.792Z,1.20
2019-03-09T15:48:42.174Z,1.40
2019-03-09T15:53:47.433Z,1.30
2019-03-09T15:58:52.674Z,1.35
2019-03-09T16:03:58.262Z,1.27
2019-03-09T16:09:05.107Z,1.20
2019-03-09T16:14:11.601Z,1.15
2019-03-09T16:19:17.205Z,1.10
2019-03-09T16:24:22.762Z,0.97
2019-03-09T16:29:29.106Z,1.20
2019-03-09T16:34:34.371Z,1.10
2019-03-09T16:39:39.605Z,0.88
2019-03-09T16:44:45.113Z,0.90
2019-03-09T16:49:50.775Z,0.90
2019-03-09T16:54:57.864Z,0.90
2019-03-09T17:00:03.101Z,1.20
2019-03-09T17:05:09.800Z,1.17
2019-03-09T17:10:15.465Z,1.40
2019-03-09T17:15:20.693Z,1.07
2019-03-09T17:20:26.109Z,0.87
2019-03-09T17:25:31.350Z,0.80
2019-03-09T17:30:36.616Z,0.80
2019-03-09T17:35:41.761Z,0.90
2019-03-09T17:40:47.354Z,0.88
2019-03-09T17:45:52.516Z,0.77
2019-03-09T17:50:58.369Z,0.90
2019-03-09T17:56:04.812Z,1.25
2019-03-09T18:01:11.001Z,1.10
2019-03-09T18:06:16.160Z,1.37
2019-03-09T18:11:22.033Z,1.40
2019-03-09T18:16:27.300Z,1.53
2019-03-09T18:21:32.466Z,1.50
2019-03-09T18:26:37.945Z,0.80
2019-03-09T18:31:43.092Z,1.20
2019-03-09T18:36:49.046Z,0.80
2019-03-09T18:41:54.632Z,0.87
2019-03-09T18:47:00.094Z,1.07
2019-03-09T18:52:05.937Z,0.70
2019-03-09T18:57:11.571Z,1.20
2019-03-09T19:02:16.717Z,1.10
2019-03-09T19:07:21.874Z,0.93
2019-03-09T19:12:27.328Z,1.03
2019-03-09T19:17:32.582Z,1.30
2019-03-09T19:22:39.052Z,1.03
2019-03-09T19:27:44.517Z,1.10
2019-03-09T19:32:59.614Z,1.10
2019-03-09T19:37:57.232Z,1.10
2019-03-09T19:43:02.821Z,1.10
2019-03-09T19:48:08.261Z,1.50
2019-03-09T19:53:15.216Z,1.03
2019-03-09T19:58:25.238Z,1.03
2019-03-09T20:03:30.690Z,1.17
2019-03-09T20:08:38.127Z,1.20
2019-03-09T20:13:44.071Z,1.50
2019-03-09T20:18:51.429Z,1.40
2019-03-09T20:23:56.574Z,1.20
2019-03-09T20:29:02.366Z,1.20
2019-03-09T20:34:07.512Z,1.67
2019-03-09T20:39:13.881Z,1.80
2019-03-09T20:44:20.169Z,1.70
2019-03-09T20:49:25.393Z,1.57
2019-03-09T20:54:32.842Z,1.87
2019-03-09T20:59:38.169Z,1.80
2019-03-09T21:04:43.415Z,1.43
2019-03-09T21:09:48.586Z,1.80
2019-03-09T21:14:55.745Z,2.20
2019-03-09T21:20:01.336Z,1.75
2019-03-09T21:25:07.059Z,1.80
2019-03-09T21:30:12.366Z,1.50
2019-03-09T21:35:17.735Z,1.80
2019-03-09T21:40:23.394Z,1.50
2019-03-09T21:45:31.337Z,1.70
2019-03-09T21:50:38.210Z,1.80
2019-03-09T21:55:44.916Z,1.77
2019-03-09T22:00:52.033Z,1.60
2019-03-09T22:06:05.965Z,1.80
2019-03-09T22:11:06.586Z,1.80
2019-03-09T22:16:12.334Z,1.40
2019-03-09T22:21:18.882Z,1.83
2019-03-09T22:26:25.019Z,2.00
2019-03-09T22:31:31.525Z,1.77
2019-03-09T22:36:38.062Z,2.00
2019-03-09T22:41:45.529Z,1.80
2019-03-09T22:46:51.088Z,1.53
2019-03-09T22:51:57.691Z,1.73
2019-03-09T22:57:06.430Z,1.87
2019-03-09T23:02:12.580Z,2.03
2019-03-09T23:07:19.260Z,1.70
2019-03-09T23:12:25.656Z,1.80
2019-03-09T23:17:33.727Z,2.83
2019-03-09T23:22:39.991Z,1.90
2019-03-09T23:27:46.368Z,1.80
2019-03-09T23:32:52.728Z,2.10
2019-03-09T23:37:59.651Z,2.17
2019-03-09T23:43:05.818Z,2.00
2019-03-09T23:48:12.227Z,1.80
2019-03-09T23:53:18.251Z,2.20
2019-03-09T23:58:25.598Z,2.13
